Terminal Aerodrome Forecast
Issued by NWS

Home | Current Version | Previous Version | Text Only | Print | Product List | Glossary On
Versions: 1 2 3 4 5 6 7 8 9 10 11 12 13 14 15 16 17 18 19 20 21 22 23 24 25 26 27 28
000
FTAK31 PANC 100855 AAA
TAFACD
TAF AMD
PACD 100855Z 1009/1106 02015KT P6SM VCSH OVC030
      TEMPO 1009/1012 SCT030 BKN120
     FM101200 02018G30KT P6SM -RA SCT015 BKN025
     FM101800 01025G35KT P6SM -RA SCT007 BKN015 OVC025
     FM110300 06020G28KT P6SM -SHRA SCT007 OVC015=

USA.gov is the U.S. government's official web portal to all federal, state and local government web resources and services.